Latest Weather Observations for Sydney Harbour

IDN60801

Issued at 5:02 pm EDT Tuesday 28 March 2017 (issued every 30 minutes, with the page automatically refreshed every 10 minutes)

About weather observations | Map of weather stations | Latest weather observations for NSW | Other Formats
Station Details ID: 066196 Name: WEDDING CAKE WEST Lat: -33.84 Lon: 151.26 Height: 6.0 m
Data from the previous 72 hours. | See also: Recent months at Sydney Harbour
Date/Time
EDT
Temp
°C
App
Temp
°C
Dew
Point
°C
Rel
Hum
%
Delta-T
°C
Wind Press
QNH
hPa
Press
MSL
hPa
Rain since
9am
mm
Dir  Spd
km/h
Gust
km/h
Spd
kts
Gust
kts
28/04:30pm 22.2 - - - - S 22 26 12 14 - - -
28/04:00pm 22.4 - - - - S 20 28 11 15 - - -
28/03:30pm 22.4 - - - - S 20 26 11 14 - - -
28/03:00pm 22.5 - - - - S 15 22 8 12 - - -
28/02:30pm 22.4 - - - - SSW 20 28 11 15 - - -
28/02:00pm 22.2 - - - - SSW 22 26 12 14 - - -
28/01:30pm 22.2 - - - - SSW 20 24 11 13 - - -
28/01:00pm 22.3 - - - - SSW 22 26 12 14 - - -
28/12:30pm 22.1 - - - - SW 24 26 13 14 - - -
28/12:00pm 22.1 - - - - SW 22 26 12 14 - - -
28/11:30am 22.0 - - - - SW 24 30 13 16 - - -
28/11:00am 22.0 - - - - SSW 22 28 12 15 - - -
28/10:30am 21.7 - - - - SW 24 28 13 15 - - -
28/10:00am 21.6 - - - - SW 24 30 13 16 - - -
28/09:30am 21.5 - - - - SW 26 35 14 19 - - -
28/09:00am 21.5 - - - - SSW 26 33 14 18 - - -
28/08:30am 21.5 - - - - SSW 30 41 16 22 - - -
28/08:00am 21.7 - - - - SSW 30 39 16 21 - - -
28/07:30am 21.5 - - - - SSW 32 43 17 23 - - -
28/07:00am 21.7 - - - - SSW 33 44 18 24 - - -
28/06:30am 21.6 - - - - SSW 37 48 20 26 - - -
28/06:00am 21.6 - - - - SSW 37 48 20 26 - - -
28/05:30am 21.7 - - - - S 35 46 19 25 - - -
28/05:00am 22.0 - - - - S 32 44 17 24 - - -
28/04:30am 22.4 - - - - S 32 37 17 20 - - -
28/04:00am 22.8 - - - - SSW 24 30 13 16 - - -
28/03:30am 22.8 - - - - SSW 19 20 10 11 - - -
28/03:00am 22.8 - - - - NW 9 13 5 7 - - -
28/02:30am 22.7 - - - - CALM 0 7 0 4 - - -
28/02:00am 22.5 - - - - N 7 11 4 6 - - -
28/01:30am 22.5 - - - - N 9 13 5 7 - - -
28/01:00am 22.6 - - - - CALM 0 0 0 0 - - -
28/12:30am 23.0 - - - - N 6 9 3 5 - - -
28/12:00am 23.3 - - - - N 11 13 6 7 - - -
 
Date/Time
EDT
Temp
°C
App
Temp
°C
Dew
Point
°C
Rel
Hum
%
Delta-T
°C
Wind Press
QNH
hPa
Press
MSL
hPa
Rain since
9am
mm
Dir  Spd
km/h
Gust
km/h
Spd
kts
Gust
kts
27/11:30pm 23.4 - - - - N 11 15 6 8 - - -
27/11:00pm 23.3 - - - - NNE 22 24 12 13 - - -
27/10:30pm 23.5 - - - - NNE 24 30 13 16 - - -
27/10:00pm 23.5 - - - - NNE 26 32 14 17 - - -
27/09:30pm 23.5 - - - - NNE 33 39 18 21 - - -
27/09:00pm 23.7 - - - - NNE 39 44 21 24 - - -
27/08:30pm 23.6 - - - - NNE 37 44 20 24 - - -
27/08:00pm 23.6 - - - - NNE 43 52 23 28 - - -
27/07:30pm 23.6 - - - - NNE 43 48 23 26 - - -
27/07:00pm 23.6 - - - - NNE 41 50 22 27 - - -
27/06:30pm 23.7 - - - - NNE 41 50 22 27 - - -
27/06:00pm 23.6 - - - - NNE 37 48 20 26 - - -
27/05:30pm 23.6 - - - - NNE 37 46 20 25 - - -
27/05:00pm 23.8 - - - - NNE 35 43 19 23 - - -
27/04:30pm 23.6 - - - - NNE 35 43 19 23 - - -
27/04:00pm 23.7 - - - - NNE 37 43 20 23 - - -
27/03:30pm 23.5 - - - - NNE 37 43 20 23 - - -
27/03:00pm 23.4 - - - - NNE 35 41 19 22 - - -
27/02:30pm 23.6 - - - - NNE 33 39 18 21 - - -
27/02:00pm 23.4 - - - - NNE 32 39 17 21 - - -
27/01:30pm 23.3 - - - - NNE 33 37 18 20 - - -
27/01:00pm 23.3 - - - - NNE 32 35 17 19 - - -
27/12:30pm 23.2 - - - - NNE 30 33 16 18 - - -
27/12:00pm 23.2 - - - - NNE 28 32 15 17 - - -
27/11:30am 23.2 - - - - NNE 26 32 14 17 - - -
27/11:00am 23.1 - - - - NNE 26 32 14 17 - - -
27/10:30am 23.4 - - - - N 19 20 10 11 - - -
27/10:00am 23.0 - - - - N 15 22 8 12 - - -
27/09:30am 22.6 - - - - NNW 9 13 5 7 - - -
27/09:00am 21.9 - - - - NNW 9 9 5 5 - - -
27/08:30am 21.3 - - - - NNW 9 11 5 6 - - -
27/08:00am 21.0 - - - - NNW 6 9 3 5 - - -
27/07:30am 20.4 - - - - CALM 0 6 0 3 - - -
27/07:00am 20.0 - - - - NNW 7 7 4 4 - - -
27/06:30am 20.1 - - - - NNW 6 6 3 3 - - -
27/06:00am 20.1 - - - - CALM 0 0 0 0 - - -
27/05:30am 20.5 - - - - NNW 4 7 2 4 - - -
27/05:00am 20.4 - - - - NNW 2 7 1 4 - - -
27/04:30am 20.4 - - - - CALM 0 0 0 0 - - -
27/04:00am 20.7 - - - - CALM 0 0 0 0 - - -
27/03:30am 20.7 - - - - NNW 6 7 3 4 - - -
27/03:00am 20.8 - - - - NNW 6 7 3 4 - - -
27/02:30am 21.1 - - - - NNW 2 7 1 4 - - -
27/02:00am 21.3 - - - - NNW 6 7 3 4 - - -
27/01:30am 21.9 - - - - NNW 11 15 6 8 - - -
27/01:00am 22.2 - - - - N 15 17 8 9 - - -
27/12:30am 23.1 - - - - NNE 19 20 10 11 - - -
27/12:00am 23.1 - - - - NNE 20 24 11 13 - - -
 
Date/Time
EDT
Temp
°C
App
Temp
°C
Dew
Point
°C
Rel
Hum
%
Delta-T
°C
Wind Press
QNH
hPa
Press
MSL
hPa
Rain since
9am
mm
Dir  Spd
km/h
Gust
km/h
Spd
kts
Gust
kts
26/11:30pm 23.3 - - - - NNE 24 26 13 14 - - -
26/11:00pm 23.3 - - - - NNE 22 28 12 15 - - -
26/10:30pm 23.3 - - - - NE 20 24 11 13 - - -
26/10:00pm 23.4 - - - - NNE 19 24 10 13 - - -
26/09:30pm 23.4 - - - - NE 20 22 11 12 - - -
26/09:00pm 23.4 - - - - NE 20 24 11 13 - - -
26/08:30pm 23.5 - - - - NE 20 26 11 14 - - -
26/08:00pm 23.5 - - - - NE 24 26 13 14 - - -
26/07:30pm 23.4 - - - - NE 20 24 11 13 - - -
26/07:00pm 23.6 - - - - NE 22 26 12 14 - - -
26/06:30pm 23.7 - - - - NE 24 28 13 15 - - -
26/06:00pm 23.9 - - - - NE 24 28 13 15 - - -
26/05:30pm 23.8 - - - - NE 22 26 12 14 - - -
26/05:00pm 23.8 - - - - NE 24 28 13 15 - - -
26/04:30pm 24.0 - - - - ENE 20 24 11 13 - - -
26/04:00pm 23.9 - - - - ENE 19 22 10 12 - - -
26/03:30pm 24.0 - - - - ENE 17 22 9 12 - - -
26/03:00pm 23.9 - - - - ENE 15 20 8 11 - - -
26/02:30pm 23.8 - - - - ENE 17 20 9 11 - - -
26/02:00pm 23.7 - - - - ENE 17 20 9 11 - - -
26/01:30pm 23.9 - - - - ENE 15 19 8 10 - - -
26/01:00pm 24.2 - - - - SW 11 15 6 8 - - -
26/12:30pm 24.3 - - - - SW 11 13 6 7 - - -
26/12:00pm 25.0 - - - - CALM 0 6 0 3 - - -
26/11:30am 23.3 - - - - CALM 0 4 0 2 - - -
26/11:00am 22.8 - - - - SW 9 11 5 6 - - -
26/10:30am 22.2 - - - - SW 13 13 7 7 - - -
26/10:00am 21.8 - - - - WSW 13 15 7 8 - - -
26/09:30am 21.1 - - - - WSW 13 17 7 9 - - -
26/09:00am 20.7 - - - - W 11 13 6 7 - - -
26/08:30am 20.3 - - - - W 13 13 7 7 - - -
26/08:00am 20.0 - - - - NW 6 7 3 4 - - -
26/07:30am 19.9 - - - - NW 9 11 5 6 - - -
26/07:00am 20.5 - - - - NW 6 7 3 4 - - -
26/06:30am 20.8 - - - - NW 7 9 4 5 - - -
26/06:00am 20.7 - - - - NW 9 11 5 6 - - -
26/05:30am 20.8 - - - - NW 7 9 4 5 - - -
26/05:00am 21.0 - - - - NW 6 7 3 4 - - -
26/04:30am 21.2 - - - - NW 6 7 3 4 - - -
26/04:00am 21.2 - - - - NW 7 9 4 5 - - -
26/03:30am 21.6 - - - - NW 6 7 3 4 - - -
26/03:00am 21.6 - - - - NW 7 9 4 5 - - -
26/02:30am 21.2 - - - - NW 9 11 5 6 - - -
26/02:00am 21.3 - - - - NW 7 9 4 5 - - -
26/01:30am 21.6 - - - - NW 9 11 5 6 - - -
26/01:00am 21.6 - - - - NW 7 9 4 5 - - -
26/12:30am 21.9 - - - - NW 9 13 5 7 - - -
26/12:00am 22.3 - - - - NW 13 17 7 9 - - -
 
Date/Time
EDT
Temp
°C
App
Temp
°C
Dew
Point
°C
Rel
Hum
%
Delta-T
°C
Wind Press
QNH
hPa
Press
MSL
hPa
Rain since
9am
mm
Dir  Spd
km/h
Gust
km/h
Spd
kts
Gust
kts
25/11:30pm 21.9 - - - - NNW 15 17 8 9 - - -
25/11:00pm 22.5 - - - - NNW 17 22 9 12 - - -
25/10:30pm 22.3 - - - - N 11 13 6 7 - - -
25/10:00pm 22.4 - - - - N 11 15 6 8 - - -
25/09:30pm 22.7 - - - - N 13 17 7 9 - - -
25/09:00pm 22.7 - - - - NNE 13 15 7 8 - - -
25/08:30pm 22.7 - - - - NE 15 17 8 9 - - -
25/08:00pm 22.6 - - - - NE 15 19 8 10 - - -
25/07:30pm 22.6 - - - - NNE 19 20 10 11 - - -
25/07:00pm 22.6 - - - - NNE 17 22 9 12 - - -
25/06:30pm 22.3 - - - - NE 20 22 11 12 - - -
25/06:00pm 22.4 - - - - NNE 20 24 11 13 - - -
25/05:30pm 22.4 - - - - NE 17 20 9 11 - - -

Other Formats:

Comma delimited format used in spreadsheet applications
http://www.bom.gov.au/fwo/IDN60801/IDN60801.95766.axf

JavaScript Object Notation format (JSON) in row-major order
http://www.bom.gov.au/fwo/IDN60801/IDN60801.95766.json